createdAt,value
2016-12-17T00:00:52.619Z,1055.12
2016-12-17T00:01:52.602Z,1055.13
2016-12-17T00:02:52.585Z,1055.15
2016-12-17T00:03:52.569Z,1055.17
2016-12-17T00:04:52.552Z,1055.15
2016-12-17T00:05:52.535Z,1055.15
2016-12-17T00:06:52.519Z,1055.15
2016-12-17T00:07:52.502Z,1055.18
2016-12-17T00:08:52.485Z,1055.19
2016-12-17T00:09:52.469Z,1055.16
2016-12-17T00:10:52.452Z,1055.16
2016-12-17T00:11:52.434Z,1055.2
2016-12-17T00:12:52.418Z,1055.17
2016-12-17T00:13:52.402Z,1055.17
2016-12-17T00:14:52.385Z,1055.17
2016-12-17T00:15:52.367Z,1055.21
2016-12-17T00:16:52.351Z,1055.18
2016-12-17T00:17:52.335Z,1055.17
2016-12-17T00:18:52.316Z,1055.19
2016-12-17T00:19:52.300Z,1055.18
2016-12-17T00:20:52.284Z,1055.23
2016-12-17T00:21:52.267Z,1055.22
2016-12-17T00:22:52.250Z,1055.2
2016-12-17T00:23:52.233Z,1055.18
2016-12-17T00:24:52.217Z,1055.19
2016-12-17T00:25:52.200Z,1055.18
2016-12-17T00:26:52.183Z,1055.14
2016-12-17T00:27:52.168Z,1055.17
2016-12-17T00:28:52.150Z,1055.18
2016-12-17T00:29:52.132Z,1055.19
2016-12-17T00:30:52.116Z,1055.18
2016-12-17T00:31:52.099Z,1055.17
2016-12-17T00:32:52.083Z,1055.19
2016-12-17T00:33:52.065Z,1055.15
2016-12-17T00:34:52.048Z,1055.15
2016-12-17T00:35:52.032Z,1055.13
2016-12-17T00:36:52.015Z,1055.11
2016-12-17T00:37:51.999Z,1055.15
2016-12-17T00:38:51.982Z,1055.14
2016-12-17T00:39:51.966Z,1055.15
2016-12-17T00:40:51.948Z,1055.17
2016-12-17T00:41:51.932Z,1055.22
2016-12-17T00:42:51.915Z,1055.2
2016-12-17T00:43:51.898Z,1055.25
2016-12-17T00:44:51.881Z,1055.28
2016-12-17T00:45:51.865Z,1055.24
2016-12-17T00:46:51.848Z,1055.28
2016-12-17T00:47:51.832Z,1055.25
2016-12-17T00:48:51.814Z,1055.27
2016-12-17T00:49:51.797Z,1055.23
2016-12-17T00:50:51.781Z,1055.22
2016-12-17T00:51:51.763Z,1055.19
2016-12-17T00:52:51.747Z,1055.21
2016-12-17T00:53:51.730Z,1055.2
2016-12-17T00:54:51.713Z,1055.18
2016-12-17T00:55:51.696Z,1055.17
2016-12-17T00:56:51.679Z,1055.17
2016-12-17T00:57:51.663Z,1055.13
2016-12-17T00:58:51.646Z,1055.15
2016-12-17T00:59:51.628Z,1055.17
2016-12-17T01:00:51.612Z,1055.17
2016-12-17T01:01:51.595Z,1055.15
2016-12-17T01:02:51.578Z,1055.17
2016-12-17T01:03:51.561Z,1055.16
2016-12-17T01:04:51.544Z,1055.12
2016-12-17T01:05:51.528Z,1055.15
2016-12-17T01:06:51.510Z,1055.16
2016-12-17T01:07:51.493Z,1055.16
2016-12-17T01:08:51.477Z,1055.17
2016-12-17T01:09:51.460Z,1055.16
2016-12-17T01:10:51.443Z,1055.14
2016-12-17T01:11:51.426Z,1055.15
2016-12-17T01:12:51.409Z,1055.16
2016-12-17T01:13:51.392Z,1055.12
2016-12-17T01:14:51.375Z,1055.08
2016-12-17T01:15:51.362Z,1055.09
2016-12-17T01:16:51.342Z,1055.07
2016-12-17T01:17:51.324Z,1055.04
2016-12-17T01:18:51.308Z,1055.07
2016-12-17T01:19:51.291Z,1055.06
2016-12-17T01:20:51.273Z,1055.09
2016-12-17T01:21:51.256Z,1055.07
2016-12-17T01:22:51.240Z,1055.05
2016-12-17T01:23:51.223Z,1055.06
2016-12-17T01:24:51.206Z,1055.06
2016-12-17T01:25:51.189Z,1055.05
2016-12-17T01:26:51.172Z,1055.04
2016-12-17T01:27:51.156Z,1055.05
2016-12-17T01:28:51.139Z,1055.07
2016-12-17T01:29:51.121Z,1055.03
2016-12-17T01:30:51.105Z,1055.02
2016-12-17T01:31:51.087Z,1055.03
2016-12-17T01:32:51.070Z,1055.06
2016-12-17T01:33:51.055Z,1055.04
2016-12-17T01:34:51.038Z,1055.08
2016-12-17T01:35:51.021Z,1055.12
2016-12-17T01:36:51.002Z,1055.13
2016-12-17T01:37:50.986Z,1055.13
2016-12-17T01:38:50.970Z,1055.14
2016-12-17T01:39:50.953Z,1055.14
2016-12-17T01:40:50.937Z,1055.14
2016-12-17T01:41:50.918Z,1055.16
2016-12-17T01:42:50.900Z,1055.15
2016-12-17T01:43:50.884Z,1055.13
2016-12-17T01:44:50.868Z,1055.12
2016-12-17T01:45:50.851Z,1055.16
2016-12-17T01:46:50.833Z,1055.12
2016-12-17T01:47:50.816Z,1055.15
2016-12-17T01:48:50.800Z,1055.14
2016-12-17T01:49:50.783Z,1055.17
2016-12-17T01:50:50.765Z,1055.19
2016-12-17T01:51:50.748Z,1055.21
2016-12-17T01:52:50.732Z,1055.2
2016-12-17T01:53:50.714Z,1055.24
2016-12-17T01:54:50.699Z,1055.27
2016-12-17T01:55:50.681Z,1055.29
2016-12-17T01:56:50.664Z,1055.31
2016-12-17T01:57:50.647Z,1055.31
2016-12-17T01:58:50.630Z,1055.34
2016-12-17T01:59:50.613Z,1055.36
2016-12-17T02:00:50.597Z,1055.38
2016-12-17T02:01:50.579Z,1055.36
2016-12-17T02:02:50.562Z,1055.37
2016-12-17T02:03:50.546Z,1055.39
2016-12-17T02:04:50.529Z,1055.4
2016-12-17T02:05:50.511Z,1055.34
2016-12-17T02:06:50.495Z,1055.36
2016-12-17T02:07:50.478Z,1055.32
2016-12-17T02:08:50.460Z,1055.34
2016-12-17T02:09:50.444Z,1055.34
2016-12-17T02:10:50.427Z,1055.28
2016-12-17T02:11:50.410Z,1055.33
2016-12-17T02:12:50.393Z,1055.31
2016-12-17T02:13:50.377Z,1055.31
2016-12-17T02:14:50.360Z,1055.28
2016-12-17T02:15:50.343Z,1055.29
2016-12-17T02:16:50.326Z,1055.33
2016-12-17T02:17:50.309Z,1055.31
2016-12-17T02:18:50.292Z,1055.3
2016-12-17T02:19:50.275Z,1055.32
2016-12-17T02:20:50.258Z,1055.31
2016-12-17T02:21:50.241Z,1055.35
2016-12-17T02:22:50.224Z,1055.34
2016-12-17T02:23:50.207Z,1055.32
2016-12-17T02:24:50.190Z,1055.33
2016-12-17T02:25:50.173Z,1055.36
2016-12-17T02:26:50.156Z,1055.34
2016-12-17T02:27:50.139Z,1055.28
2016-12-17T02:28:50.122Z,1055.32
2016-12-17T02:29:50.105Z,1055.32
2016-12-17T02:30:50.087Z,1055.32
2016-12-17T02:31:50.070Z,1055.32
2016-12-17T02:32:50.054Z,1055.29
2016-12-17T02:33:50.036Z,1055.27
2016-12-17T02:34:50.022Z,1055.29
2016-12-17T02:35:50.002Z,1055.27
2016-12-17T02:36:49.986Z,1055.28
2016-12-17T02:37:49.967Z,1055.27
2016-12-17T02:38:49.951Z,1055.31
2016-12-17T02:39:49.934Z,1055.31
2016-12-17T02:40:49.917Z,1055.31
2016-12-17T02:41:49.899Z,1055.29
2016-12-17T02:42:49.883Z,1055.32
2016-12-17T02:43:49.866Z,1055.31
2016-12-17T02:44:49.848Z,1055.33
2016-12-17T02:45:49.831Z,1055.35
2016-12-17T02:46:49.815Z,1055.34
2016-12-17T02:47:49.798Z,1055.39
2016-12-17T02:48:49.779Z,1055.37
2016-12-17T02:49:49.763Z,1055.38
2016-12-17T02:50:49.746Z,1055.36
2016-12-17T02:51:49.730Z,1055.39
2016-12-17T02:52:49.715Z,1055.37
2016-12-17T02:53:49.694Z,1055.4
2016-12-17T02:54:49.678Z,1055.37
2016-12-17T02:55:49.660Z,1055.39
2016-12-17T02:56:49.643Z,1055.36
2016-12-17T02:57:49.626Z,1055.38
2016-12-17T02:58:49.609Z,1055.39
2016-12-17T02:59:49.591Z,1055.38
2016-12-17T03:00:49.574Z,1055.4
2016-12-17T03:01:49.558Z,1055.4
2016-12-17T03:02:49.541Z,1055.4
2016-12-17T03:03:49.523Z,1055.42
2016-12-17T03:04:49.506Z,1055.37
2016-12-17T03:05:49.489Z,1055.38
2016-12-17T03:06:49.471Z,1055.31
2016-12-17T03:07:49.455Z,1055.3
2016-12-17T03:08:49.438Z,1055.3
2016-12-17T03:09:49.421Z,1055.31
2016-12-17T03:10:49.405Z,1055.31
2016-12-17T03:11:49.386Z,1055.27
2016-12-17T03:12:49.369Z,1055.26
2016-12-17T03:13:49.352Z,1055.29
2016-12-17T03:14:49.334Z,1055.26
2016-12-17T03:15:49.318Z,1055.23
2016-12-17T03:16:49.301Z,1055.28
2016-12-17T03:17:49.283Z,1055.28
2016-12-17T03:18:49.267Z,1055.3
2016-12-17T03:19:49.249Z,1055.32
2016-12-17T03:20:49.232Z,1055.33
2016-12-17T03:21:49.214Z,1055.37
2016-12-17T03:22:49.197Z,1055.38
2016-12-17T03:23:49.181Z,1055.39
2016-12-17T03:24:49.164Z,1055.42
2016-12-17T03:25:49.146Z,1055.48
2016-12-17T03:26:49.129Z,1055.45
2016-12-17T03:27:49.113Z,1055.49
2016-12-17T03:28:49.094Z,1055.48
2016-12-17T03:29:49.077Z,1055.49
2016-12-17T03:30:49.060Z,1055.44
2016-12-17T03:31:49.043Z,1055.48
2016-12-17T03:32:49.025Z,1055.46
2016-12-17T03:33:49.010Z,1055.44
2016-12-17T03:34:48.992Z,1055.47
2016-12-17T03:35:48.975Z,1055.45
2016-12-17T03:36:48.957Z,1055.48
2016-12-17T03:37:48.940Z,1055.49
2016-12-17T03:38:48.923Z,1055.48
2016-12-17T03:39:48.905Z,1055.47
2016-12-17T03:40:48.888Z,1055.45
2016-12-17T03:41:48.871Z,1055.44
2016-12-17T03:42:48.856Z,1055.47
2016-12-17T03:43:48.839Z,1055.5
2016-12-17T03:44:48.819Z,1055.51
2016-12-17T03:45:48.803Z,1055.55
2016-12-17T03:46:48.786Z,1055.57
2016-12-17T03:47:48.769Z,1055.59
2016-12-17T03:48:48.752Z,1055.58
2016-12-17T03:49:48.735Z,1055.58
2016-12-17T03:50:48.717Z,1055.61
2016-12-17T03:51:48.700Z,1055.59
2016-12-17T03:52:48.684Z,1055.64
2016-12-17T03:53:48.666Z,1055.61
2016-12-17T03:54:48.648Z,1055.63
2016-12-17T03:55:48.631Z,1055.62
2016-12-17T03:56:48.614Z,1055.61
2016-12-17T03:57:48.596Z,1055.63
2016-12-17T03:58:48.580Z,1055.61
2016-12-17T03:59:48.563Z,1055.66
2016-12-17T04:00:48.546Z,1055.59
2016-12-17T04:01:48.528Z,1055.61
2016-12-17T04:02:48.511Z,1055.61
2016-12-17T04:03:48.493Z,1055.61
2016-12-17T04:04:48.477Z,1055.55
2016-12-17T04:05:48.459Z,1055.52
2016-12-17T04:06:48.442Z,1055.48
2016-12-17T04:07:48.425Z,1055.44
2016-12-17T04:08:48.407Z,1055.4
2016-12-17T04:09:48.390Z,1055.39
2016-12-17T04:10:48.373Z,1055.37
2016-12-17T04:11:48.356Z,1055.33
2016-12-17T04:12:48.337Z,1055.28
2016-12-17T04:13:48.321Z,1055.29
2016-12-17T04:14:48.304Z,1055.26
2016-12-17T04:15:48.287Z,1055.23
2016-12-17T04:16:48.269Z,1055.22
2016-12-17T04:17:48.252Z,1055.19
2016-12-17T04:18:48.235Z,1055.14
2016-12-17T04:19:48.218Z,1055.08
2016-12-17T04:20:48.200Z,1055.09
2016-12-17T04:21:48.183Z,1055.06
2016-12-17T04:22:48.167Z,1054.99
2016-12-17T04:23:48.149Z,1054.95
2016-12-17T04:24:48.132Z,1054.83
2016-12-17T04:25:48.115Z,1054.8
2016-12-17T04:26:48.098Z,1054.73
2016-12-17T04:27:48.081Z,1054.63
2016-12-17T04:28:48.064Z,1054.55
2016-12-17T04:29:48.048Z,1054.47
2016-12-17T04:30:48.030Z,1054.47
2016-12-17T04:31:48.013Z,1054.44
2016-12-17T04:32:47.996Z,1054.31
2016-12-17T04:33:47.980Z,1054.25
2016-12-17T04:34:47.962Z,1054.21
2016-12-17T04:35:47.946Z,1054.15
2016-12-17T04:36:47.930Z,1054.11
2016-12-17T04:37:47.913Z,1054.04
2016-12-17T04:38:47.896Z,1053.97
2016-12-17T04:39:47.880Z,1053.92
2016-12-17T04:40:47.864Z,1053.86
2016-12-17T04:41:47.846Z,1053.85
2016-12-17T04:42:47.830Z,1053.78
2016-12-17T04:43:47.814Z,1053.76
2016-12-17T04:44:47.798Z,1053.67
2016-12-17T04:45:47.782Z,1053.65
2016-12-17T04:46:47.765Z,1053.65
2016-12-17T04:47:47.749Z,1053.64
2016-12-17T04:48:47.734Z,1053.57
2016-12-17T04:49:47.717Z,1053.56
2016-12-17T04:50:47.702Z,1053.54
2016-12-17T04:51:47.685Z,1053.47
2016-12-17T04:52:47.669Z,1053.42
2016-12-17T04:53:47.653Z,1053.43
2016-12-17T04:54:47.637Z,1053.41
2016-12-17T04:55:47.622Z,1053.35
2016-12-17T04:56:47.605Z,1053.38
2016-12-17T04:57:47.590Z,1053.34
2016-12-17T04:58:47.574Z,1053.27
2016-12-17T04:59:47.559Z,1053.3
2016-12-17T05:00:47.542Z,1053.29
2016-12-17T05:01:47.527Z,1053.28
2016-12-17T05:02:47.512Z,1053.28
2016-12-17T05:03:47.496Z,1053.28
2016-12-17T05:04:47.480Z,1053.31
2016-12-17T05:05:47.465Z,1053.29
2016-12-17T05:06:47.450Z,1053.26
2016-12-17T05:07:47.433Z,1053.28
2016-12-17T05:08:47.418Z,1053.24
2016-12-17T05:09:47.403Z,1053.24
2016-12-17T05:10:47.388Z,1053.24
2016-12-17T05:11:47.372Z,1053.15
2016-12-17T05:12:47.357Z,1053.13
2016-12-17T05:13:47.342Z,1053.11
2016-12-17T05:14:47.326Z,1053.05
2016-12-17T05:15:47.311Z,1053.1
2016-12-17T05:16:47.296Z,1053.09
2016-12-17T05:17:47.281Z,1053.09
2016-12-17T05:18:47.265Z,1053.1
2016-12-17T05:19:47.250Z,1053.08
2016-12-17T05:20:47.235Z,1053.06
2016-12-17T05:21:47.220Z,1053.05
2016-12-17T05:22:47.205Z,1053.03
2016-12-17T05:23:47.190Z,1053.08
2016-12-17T05:24:47.176Z,1053.04
2016-12-17T05:25:47.160Z,1053.06
2016-12-17T05:26:47.146Z,1053.07
2016-12-17T05:27:47.130Z,1053.04
2016-12-17T05:28:47.115Z,1053.04
2016-12-17T05:29:47.099Z,1053.05
2016-12-17T05:30:47.084Z,1053.09
2016-12-17T05:31:47.070Z,1053.11
2016-12-17T05:32:47.054Z,1053.08
2016-12-17T05:33:47.039Z,1053.07
2016-12-17T05:34:47.025Z,1053.05
2016-12-17T05:35:47.010Z,1053.05
2016-12-17T05:36:46.994Z,1053.09
2016-12-17T05:37:46.980Z,1053.02
2016-12-17T05:38:46.970Z,1053
2016-12-17T05:39:46.950Z,1052.96
2016-12-17T05:40:46.935Z,1052.96
2016-12-17T05:41:46.920Z,1052.91
2016-12-17T05:42:46.905Z,1052.9
2016-12-17T05:43:46.889Z,1052.91
2016-12-17T05:44:46.875Z,1052.87
2016-12-17T05:45:46.861Z,1052.84
2016-12-17T05:46:46.846Z,1052.83
2016-12-17T05:47:46.830Z,1052.84
2016-12-17T05:48:46.816Z,1052.82
2016-12-17T05:49:46.801Z,1052.8
2016-12-17T05:50:46.787Z,1052.8
2016-12-17T05:51:46.771Z,1052.78
2016-12-17T05:52:46.757Z,1052.8
2016-12-17T05:53:46.742Z,1052.8
2016-12-17T05:54:46.727Z,1052.86
2016-12-17T05:55:46.712Z,1052.91
2016-12-17T05:56:46.701Z,1052.93
2016-12-17T05:57:46.683Z,1052.98
2016-12-17T05:58:46.668Z,1053.02
2016-12-17T05:59:46.654Z,1053.07
2016-12-17T06:00:46.639Z,1053.04
2016-12-17T06:01:46.625Z,1053.06
2016-12-17T06:02:46.609Z,1053.06
2016-12-17T06:03:46.595Z,1052.99
2016-12-17T06:04:46.581Z,1053.03
2016-12-17T06:05:46.565Z,1053.07
2016-12-17T06:06:46.551Z,1053.09
2016-12-17T06:07:46.536Z,1053.03
2016-12-17T06:08:46.522Z,1053.08
2016-12-17T06:09:46.507Z,1053.05
2016-12-17T06:10:46.492Z,1053.03
2016-12-17T06:11:46.478Z,1052.99
2016-12-17T06:12:46.463Z,1052.98
2016-12-17T06:13:46.448Z,1053.03
2016-12-17T06:14:46.434Z,1053.03
2016-12-17T06:15:46.421Z,1053.04
2016-12-17T06:16:46.404Z,1053.08
2016-12-17T06:17:46.390Z,1053.04
2016-12-17T06:18:46.376Z,1053.04
2016-12-17T06:19:46.361Z,1053.08
2016-12-17T06:20:46.345Z,1053.08
2016-12-17T06:21:46.331Z,1053.05
2016-12-17T06:22:46.317Z,1053.13
2016-12-17T06:23:46.302Z,1053.18
2016-12-17T06:24:46.287Z,1053.15
2016-12-17T06:25:46.273Z,1053.13
2016-12-17T06:26:46.259Z,1053.1
2016-12-17T06:27:46.243Z,1053.1
2016-12-17T06:28:46.229Z,1053.08
2016-12-17T06:29:46.217Z,1053.08
2016-12-17T06:30:46.200Z,1053.11
2016-12-17T06:31:46.184Z,1053.17
2016-12-17T06:32:46.170Z,1053.15
2016-12-17T06:33:46.156Z,1053.13
2016-12-17T06:34:46.141Z,1053.18
2016-12-17T06:35:46.126Z,1053.19
2016-12-17T06:36:46.112Z,1053.16
2016-12-17T06:37:46.097Z,1053.17
2016-12-17T06:38:46.082Z,1053.14
2016-12-17T06:39:46.068Z,1053.08
2016-12-17T06:40:46.053Z,1053.09
2016-12-17T06:41:46.039Z,1053.01
2016-12-17T06:42:46.024Z,1052.99
2016-12-17T06:43:46.011Z,1053.02
2016-12-17T06:44:45.995Z,1053
2016-12-17T06:45:45.980Z,1052.94
2016-12-17T06:46:45.965Z,1052.97
2016-12-17T06:47:45.951Z,1052.94
2016-12-17T06:48:45.936Z,1052.97
2016-12-17T06:49:45.921Z,1053.03
2016-12-17T06:50:45.907Z,1053.04
2016-12-17T06:51:45.893Z,1053.07
2016-12-17T06:52:45.879Z,1053.07
2016-12-17T06:53:45.863Z,1053.08
2016-12-17T06:54:45.849Z,1053.06
2016-12-17T06:55:45.835Z,1053.07
2016-12-17T06:56:45.820Z,1053.06
2016-12-17T06:57:45.806Z,1053.06
2016-12-17T06:58:45.792Z,1053.05
2016-12-17T06:59:45.777Z,1053.02
2016-12-17T07:00:45.762Z,1053
2016-12-17T07:01:45.748Z,1052.99
2016-12-17T07:02:45.733Z,1053.01
2016-12-17T07:03:45.720Z,1053.01
2016-12-17T07:04:45.704Z,1052.97
2016-12-17T07:05:45.695Z,1052.93
2016-12-17T07:06:45.676Z,1052.93
2016-12-17T07:07:45.661Z,1052.99
2016-12-17T07:08:45.647Z,1052.98
2016-12-17T07:09:45.632Z,1052.96
2016-12-17T07:10:45.619Z,1052.97
2016-12-17T07:11:45.626Z,1052.98
2016-12-17T07:12:45.590Z,1053.05
2016-12-17T07:13:45.575Z,1053.06
2016-12-17T07:14:45.561Z,1053
2016-12-17T07:15:45.552Z,1053.06
2016-12-17T07:16:45.532Z,1052.97
2016-12-17T07:17:45.518Z,1052.95
2016-12-17T07:18:45.503Z,1052.96
2016-12-17T07:19:45.488Z,1052.95
2016-12-17T07:20:45.475Z,1052.97
2016-12-17T07:21:45.460Z,1052.94
2016-12-17T07:22:45.446Z,1052.94
2016-12-17T07:23:45.432Z,1052.95
2016-12-17T07:24:45.417Z,1053.03
2016-12-17T07:25:45.404Z,1053.01
2016-12-17T07:26:45.389Z,1053.02
2016-12-17T07:27:45.374Z,1053
2016-12-17T07:28:45.360Z,1053.04
2016-12-17T07:29:45.345Z,1053.05
2016-12-17T07:30:45.331Z,1053.05
2016-12-17T07:31:45.317Z,1053.02
2016-12-17T07:32:45.305Z,1053
2016-12-17T07:33:45.288Z,1052.99
2016-12-17T07:34:45.275Z,1053.03
2016-12-17T07:35:45.261Z,1053
2016-12-17T07:36:45.247Z,1053
2016-12-17T07:37:45.232Z,1052.97
2016-12-17T07:38:45.217Z,1053
2016-12-17T07:39:45.204Z,1052.99
2016-12-17T07:40:45.189Z,1052.98
2016-12-17T07:41:45.175Z,1052.94
2016-12-17T07:42:45.162Z,1052.92
2016-12-17T07:43:45.147Z,1052.89
2016-12-17T07:44:45.132Z,1052.88
2016-12-17T07:45:45.118Z,1052.87
2016-12-17T07:46:45.104Z,1052.9
2016-12-17T07:47:45.091Z,1052.91
2016-12-17T07:48:45.076Z,1052.91
2016-12-17T07:49:45.062Z,1052.91
2016-12-17T07:50:45.048Z,1052.93
2016-12-17T07:51:45.033Z,1052.91
2016-12-17T07:52:45.020Z,1052.92
2016-12-17T07:53:45.006Z,1052.92
2016-12-17T07:54:44.992Z,1052.93
2016-12-17T07:55:44.977Z,1052.92
2016-12-17T07:56:44.963Z,1052.91
2016-12-17T07:57:44.950Z,1052.87
2016-12-17T07:58:44.938Z,1052.84
2016-12-17T07:59:44.922Z,1052.84
2016-12-17T08:00:44.908Z,1052.85
2016-12-17T08:01:44.894Z,1052.85
2016-12-17T08:02:44.879Z,1052.84
2016-12-17T08:03:44.870Z,1052.83
2016-12-17T08:04:44.852Z,1052.86
2016-12-17T08:05:44.839Z,1052.87
2016-12-17T08:06:44.824Z,1052.88
2016-12-17T08:07:44.811Z,1052.84
2016-12-17T08:08:44.797Z,1052.83
2016-12-17T08:09:44.786Z,1052.82
2016-12-17T08:10:44.769Z,1052.76
2016-12-17T08:11:44.756Z,1052.76
2016-12-17T08:12:44.742Z,1052.74
2016-12-17T08:13:44.728Z,1052.76
2016-12-17T08:14:44.714Z,1052.69
2016-12-17T08:15:44.701Z,1052.7
2016-12-17T08:16:44.687Z,1052.75
2016-12-17T08:17:44.674Z,1052.73
2016-12-17T08:18:44.659Z,1052.75
2016-12-17T08:19:44.647Z,1052.78
2016-12-17T08:20:44.633Z,1052.75
2016-12-17T08:21:44.618Z,1052.8
2016-12-17T08:22:44.606Z,1052.83
2016-12-17T08:23:44.591Z,1052.82
2016-12-17T08:24:44.577Z,1052.77
2016-12-17T08:25:44.564Z,1052.81
2016-12-17T08:26:44.551Z,1052.83
2016-12-17T08:27:44.537Z,1052.84
2016-12-17T08:28:44.523Z,1052.83
2016-12-17T08:29:44.510Z,1052.81
2016-12-17T08:30:44.497Z,1052.81
2016-12-17T08:31:44.482Z,1052.78
2016-12-17T08:32:44.470Z,1052.81
2016-12-17T08:33:44.456Z,1052.75
2016-12-17T08:34:44.443Z,1052.76
2016-12-17T08:35:44.429Z,1052.77
2016-12-17T08:36:44.415Z,1052.76
2016-12-17T08:37:44.401Z,1052.78
2016-12-17T08:38:44.389Z,1052.79
2016-12-17T08:39:44.374Z,1052.78
2016-12-17T08:40:44.361Z,1052.73
2016-12-17T08:41:44.348Z,1052.76
2016-12-17T08:42:44.335Z,1052.7
2016-12-17T08:43:44.320Z,1052.64
2016-12-17T08:44:44.307Z,1052.63
2016-12-17T08:45:44.294Z,1052.66
2016-12-17T08:46:44.279Z,1052.65
2016-12-17T08:47:44.266Z,1052.66
2016-12-17T08:48:44.253Z,1052.67
2016-12-17T08:49:44.239Z,1052.66
2016-12-17T08:50:44.226Z,1052.66
2016-12-17T08:51:44.212Z,1052.65
2016-12-17T08:52:44.199Z,1052.69
2016-12-17T08:53:44.185Z,1052.72
2016-12-17T08:54:44.172Z,1052.68
2016-12-17T08:55:44.159Z,1052.68
2016-12-17T08:56:44.146Z,1052.67
2016-12-17T08:57:44.131Z,1052.67
2016-12-17T08:58:44.119Z,1052.65
2016-12-17T08:59:44.105Z,1052.7
2016-12-17T09:00:44.092Z,1052.66
2016-12-17T09:01:44.078Z,1052.69
2016-12-17T09:02:44.064Z,1052.69
2016-12-17T09:03:44.053Z,1052.73
2016-12-17T09:04:44.037Z,1052.74
2016-12-17T09:05:44.024Z,1052.76
2016-12-17T09:06:44.012Z,1052.79
2016-12-17T09:07:43.999Z,1052.76
2016-12-17T09:08:43.984Z,1052.77
2016-12-17T09:09:43.971Z,1052.75
2016-12-17T09:10:43.958Z,1052.74
2016-12-17T09:11:43.945Z,1052.77
2016-12-17T09:12:43.931Z,1052.76
2016-12-17T09:13:43.919Z,1052.77
2016-12-17T09:14:43.904Z,1052.78
2016-12-17T09:15:43.890Z,1052.81
2016-12-17T09:16:43.879Z,1052.8
2016-12-17T09:17:43.864Z,1052.75
2016-12-17T09:18:43.851Z,1052.76
2016-12-17T09:19:43.837Z,1052.78
2016-12-17T09:20:43.824Z,1052.79
2016-12-17T09:21:43.811Z,1052.78
2016-12-17T09:22:43.798Z,1052.77
2016-12-17T09:23:43.784Z,1052.78
2016-12-17T09:24:43.771Z,1052.76
2016-12-17T09:25:43.758Z,1052.74
2016-12-17T09:26:43.744Z,1052.72
2016-12-17T09:27:43.731Z,1052.72
2016-12-17T09:28:43.731Z,1052.7
2016-12-17T09:29:43.705Z,1052.73
2016-12-17T09:30:43.691Z,1052.72
2016-12-17T09:31:43.678Z,1052.7
2016-12-17T09:32:43.667Z,1052.68
2016-12-17T09:33:43.652Z,1052.62
2016-12-17T09:34:43.638Z,1052.61
2016-12-17T09:35:43.625Z,1052.63
2016-12-17T09:36:43.612Z,1052.63
2016-12-17T09:37:43.598Z,1052.66
2016-12-17T09:38:43.585Z,1052.7
2016-12-17T09:39:43.572Z,1052.71
2016-12-17T09:40:43.559Z,1052.74
2016-12-17T09:41:43.545Z,1052.68
2016-12-17T09:42:43.532Z,1052.67
2016-12-17T09:43:43.519Z,1052.65
2016-12-17T09:44:43.506Z,1052.68
2016-12-17T09:45:43.492Z,1052.66
2016-12-17T09:46:43.479Z,1052.65
2016-12-17T09:47:43.467Z,1052.64
2016-12-17T09:48:43.452Z,1052.63
2016-12-17T09:49:43.440Z,1052.64
2016-12-17T09:50:43.427Z,1052.6
2016-12-17T09:51:43.414Z,1052.61
2016-12-17T09:52:43.400Z,1052.58
2016-12-17T09:53:43.387Z,1052.58
2016-12-17T09:54:43.375Z,1052.54
2016-12-17T09:55:43.362Z,1052.55
2016-12-17T09:56:43.349Z,1052.6
2016-12-17T09:57:43.335Z,1052.6
2016-12-17T09:58:43.322Z,1052.61
2016-12-17T09:59:43.308Z,1052.64
2016-12-17T10:00:43.295Z,1052.69
2016-12-17T10:01:43.283Z,1052.73
2016-12-17T10:02:43.270Z,1052.72
2016-12-17T10:03:43.256Z,1052.72
2016-12-17T10:04:43.244Z,1052.73
2016-12-17T10:05:43.230Z,1052.74
2016-12-17T10:06:43.220Z,1052.76
2016-12-17T10:07:43.204Z,1052.78
2016-12-17T10:08:43.192Z,1052.78
2016-12-17T10:09:43.179Z,1052.8
2016-12-17T10:10:43.165Z,1052.81
2016-12-17T10:11:43.153Z,1052.84
2016-12-17T10:12:43.139Z,1052.87
2016-12-17T10:13:43.127Z,1052.92
2016-12-17T10:14:43.112Z,1052.89
2016-12-17T10:15:43.099Z,1052.85
2016-12-17T10:16:43.087Z,1052.81
2016-12-17T10:17:43.073Z,1052.79
2016-12-17T10:18:43.060Z,1052.8
2016-12-17T10:19:43.048Z,1052.77
2016-12-17T10:20:43.034Z,1052.79
2016-12-17T10:21:43.020Z,1052.75
2016-12-17T10:22:43.007Z,1052.71
2016-12-17T10:23:42.995Z,1052.74
2016-12-17T10:24:42.982Z,1052.72
2016-12-17T10:25:42.968Z,1052.77
2016-12-17T10:26:42.955Z,1052.78
2016-12-17T10:27:42.945Z,1052.8
2016-12-17T10:28:42.928Z,1052.76
2016-12-17T10:29:42.915Z,1052.74
2016-12-17T10:30:42.903Z,1052.74
2016-12-17T10:31:42.890Z,1052.73
2016-12-17T10:32:42.877Z,1052.71
2016-12-17T10:33:42.864Z,1052.69
2016-12-17T10:34:42.850Z,1052.69
2016-12-17T10:35:42.838Z,1052.63
2016-12-17T10:36:42.824Z,1052.6
2016-12-17T10:37:42.811Z,1052.6
2016-12-17T10:38:42.798Z,1052.64
2016-12-17T10:39:42.785Z,1052.64
2016-12-17T10:40:42.771Z,1052.63
2016-12-17T10:41:42.759Z,1052.58
2016-12-17T10:42:42.746Z,1052.57
2016-12-17T10:43:42.735Z,1052.58
2016-12-17T10:44:42.719Z,1052.64
2016-12-17T10:45:42.707Z,1052.66
2016-12-17T10:46:42.694Z,1052.66
2016-12-17T10:47:42.680Z,1052.67
2016-12-17T10:48:42.670Z,1052.7
2016-12-17T10:49:42.654Z,1052.72
2016-12-17T10:50:42.640Z,1052.7
2016-12-17T10:51:42.628Z,1052.69
2016-12-17T10:52:42.615Z,1052.66
2016-12-17T10:53:42.602Z,1052.66
2016-12-17T10:54:42.588Z,1052.7
2016-12-17T10:55:42.576Z,1052.73
2016-12-17T10:56:42.563Z,1052.77
2016-12-17T10:57:42.550Z,1052.82
2016-12-17T10:58:42.537Z,1052.86
2016-12-17T10:59:42.524Z,1052.96
2016-12-17T11:00:42.511Z,1053.01
2016-12-17T11:01:42.497Z,1053.05
2016-12-17T11:02:42.487Z,1053.01
2016-12-17T11:03:42.472Z,1053.05
2016-12-17T11:04:42.459Z,1053.09
2016-12-17T11:05:42.447Z,1053.08
2016-12-17T11:06:42.433Z,1053.07
2016-12-17T11:07:42.420Z,1053.04
2016-12-17T11:08:42.407Z,1053.07
2016-12-17T11:09:42.393Z,1053.11
2016-12-17T11:10:42.380Z,1053.13
2016-12-17T11:11:42.367Z,1053.11
2016-12-17T11:12:42.353Z,1053.13
2016-12-17T11:13:42.341Z,1053.12
2016-12-17T11:14:42.327Z,1053.13
2016-12-17T11:15:42.315Z,1053.2
2016-12-17T11:16:42.301Z,1053.3
2016-12-17T11:17:42.288Z,1053.34
2016-12-17T11:18:42.275Z,1053.33
2016-12-17T11:19:42.262Z,1053.33
2016-12-17T11:20:42.248Z,1053.29
2016-12-17T11:21:42.235Z,1053.32
2016-12-17T11:22:42.223Z,1053.34
2016-12-17T11:23:42.208Z,1053.36
2016-12-17T11:24:42.195Z,1053.38
2016-12-17T11:25:42.182Z,1053.38
2016-12-17T11:26:42.169Z,1053.37
2016-12-17T11:27:42.155Z,1053.36
2016-12-17T11:28:42.142Z,1053.35
2016-12-17T11:29:42.130Z,1053.26
2016-12-17T11:30:42.116Z,1053.21
2016-12-17T11:31:42.102Z,1053.17
2016-12-17T11:32:42.089Z,1053.12
2016-12-17T11:33:42.077Z,1053.11
2016-12-17T11:34:42.061Z,1053.15
2016-12-17T11:35:42.048Z,1053.13
2016-12-17T11:36:42.036Z,1053.12
2016-12-17T11:37:42.023Z,1053.15
2016-12-17T11:38:42.009Z,1053.1
2016-12-17T11:39:41.996Z,1053.12
2016-12-17T11:40:41.982Z,1053.12
2016-12-17T11:41:41.970Z,1053.14
2016-12-17T11:42:41.957Z,1053.14
2016-12-17T11:43:41.944Z,1053.15
2016-12-17T11:44:41.930Z,1053.14
2016-12-17T11:45:41.917Z,1053.11
2016-12-17T11:46:41.904Z,1053.05
2016-12-17T11:47:41.891Z,1053.03
2016-12-17T11:48:41.878Z,1053.03
2016-12-17T11:49:41.864Z,1053.02
2016-12-17T11:50:41.851Z,1053.04
2016-12-17T11:51:41.838Z,1053.04
2016-12-17T11:52:41.824Z,1052.97
2016-12-17T11:53:41.811Z,1052.99
2016-12-17T11:54:41.798Z,1052.93
2016-12-17T11:55:41.785Z,1052.95
2016-12-17T11:56:41.772Z,1052.94
2016-12-17T11:57:41.759Z,1052.92
2016-12-17T11:58:41.746Z,1052.9
2016-12-17T11:59:41.733Z,1052.88
2016-12-17T12:00:41.719Z,1052.88
2016-12-17T12:01:41.707Z,1052.9
2016-12-17T12:02:41.693Z,1052.95
2016-12-17T12:03:41.680Z,1052.98
2016-12-17T12:04:41.667Z,1053.03
2016-12-17T12:05:41.654Z,1053.06
2016-12-17T12:06:41.641Z,1053.11
2016-12-17T12:07:41.627Z,1053.14
2016-12-17T12:08:41.614Z,1053.17